PILOTS ONLINE: 636    ATC ONLINE: 151

KRND - Randolph Air Force Base

Location

City Universal City
Country  United States
Latitude 29° 31' 46" N
Longitude 98° 16' 44" W
Elevation 761 ft
Type Large Airport

Runways

14L/32R 8351 ft / 200 ft
14R/32L 8353 ft / 200 ft

Weather

METAR
2014/07/25 18:58
KRND 251858Z AUTO 17008KT 10SM FEW130 SCT210 33/20 A3002 RMK AO2 SLP156 T03330195
TAF
2014/07/25 17:03
TAF KRND 2517/2623 14009KT 9999 FEW060 QNH2996INS 
      BECMG 2610/2611 18009KT 9999 OVC008 QNH3002INS 
      BECMG 2614/2615 19009KT 9999 SCT019 QNH3002INS 
      BECMG 2617/2618 18009KT 9999 FEW050 QNH2996INS TX35/2622Z TN23/2611Z

Outbound flights

Inbound flights